createdAt,value
2018-11-27T00:03:49.324Z,14.21
2018-11-27T00:09:44.360Z,14.37
2018-11-27T00:15:39.319Z,11.58
2018-11-27T00:21:34.409Z,14.42
2018-11-27T00:27:29.377Z,12.91
2018-11-27T00:33:24.342Z,17.17
2018-11-27T00:39:19.341Z,15.5
2018-11-27T00:45:14.345Z,12.74
2018-11-27T00:51:09.359Z,14.7
2018-11-27T00:57:04.343Z,16.87
2018-11-27T01:02:59.339Z,11.14
2018-11-27T01:08:54.392Z,14.8
2018-11-27T01:14:49.374Z,17.64
2018-11-27T01:20:44.361Z,14.9
2018-11-27T01:26:39.420Z,9
2018-11-27T01:32:34.448Z,16.27
2018-11-27T01:38:29.399Z,13.42
2018-11-27T01:44:24.410Z,10.58
2018-11-27T01:50:19.373Z,13.32
2018-11-27T01:56:14.405Z,16.35
2018-11-27T02:02:09.406Z,12.03
2018-11-27T02:08:04.403Z,14.7
2018-11-27T02:13:59.445Z,10.75
2018-11-27T02:19:54.432Z,12.6
2018-11-27T02:25:49.405Z,10.26
2018-11-27T02:31:44.442Z,13.74
2018-11-27T02:37:39.416Z,9.25
2018-11-27T02:43:34.460Z,10.95
2018-11-27T02:49:29.465Z,13.68
2018-11-27T02:55:24.452Z,12.72
2018-11-27T03:01:19.446Z,13.36
2018-11-27T03:07:14.423Z,8.44
2018-11-27T03:13:09.461Z,8.22
2018-11-27T03:19:04.436Z,9.13
2018-11-27T03:24:59.478Z,8.22
2018-11-27T03:30:54.478Z,7.52
2018-11-27T03:36:49.463Z,10.58
2018-11-27T03:42:44.456Z,8.87
2018-11-27T03:48:39.463Z,6.54
2018-11-27T03:54:34.459Z,6.95
2018-11-27T04:00:29.500Z,5.88
2018-11-27T04:06:24.472Z,12.55
2018-11-27T04:12:19.451Z,12.21
2018-11-27T04:18:14.489Z,9.25
2018-11-27T04:24:09.485Z,9.23
2018-11-27T04:30:04.490Z,17.67
2018-11-27T04:35:59.482Z,8.54
2018-11-27T04:41:54.487Z,5.11
2018-11-27T04:47:49.472Z,5.11
2018-11-27T04:53:44.505Z,5.53
2018-11-27T04:59:39.485Z,6.97
2018-11-27T05:05:34.501Z,9.29
2018-11-27T05:11:29.507Z,6.37
2018-11-27T05:17:24.533Z,6.65
2018-11-27T05:23:19.526Z,9.83
2018-11-27T05:29:14.519Z,6.53
2018-11-27T05:35:09.519Z,15.13
2018-11-27T05:41:04.528Z,8.27
2018-11-27T05:46:59.539Z,4.41
2018-11-27T05:52:54.523Z,6.8
2018-11-27T05:58:49.542Z,5.64
2018-11-27T06:04:44.538Z,6.03
2018-11-27T06:10:39.571Z,8.75
2018-11-27T06:16:34.526Z,10.49
2018-11-27T06:22:29.566Z,6.84
2018-11-27T06:28:24.540Z,4.52
2018-11-27T06:34:19.593Z,6.37
2018-11-27T06:40:14.542Z,8.97
2018-11-27T06:46:09.546Z,5.41
2018-11-27T06:52:04.558Z,7.83
2018-11-27T06:57:59.592Z,7.21
2018-11-27T07:03:54.595Z,8.78
2018-11-27T07:09:49.579Z,8.87
2018-11-27T07:15:44.591Z,12.95
2018-11-27T07:21:39.573Z,14.51
2018-11-27T07:27:34.595Z,10.41
2018-11-27T07:33:29.618Z,10.67
2018-11-27T07:39:24.604Z,8.25
2018-11-27T07:45:19.578Z,13.37
2018-11-27T07:51:14.608Z,15.98
2018-11-27T07:57:09.578Z,10.86
2018-11-27T08:03:04.608Z,12.28
2018-11-27T08:08:59.599Z,15.98
2018-11-27T08:14:54.703Z,28.7
2018-11-27T08:20:49.607Z,14.85
2018-11-27T08:26:44.621Z,12.61
2018-11-27T08:32:39.591Z,10.93
2018-11-27T08:38:34.599Z,10.01
2018-11-27T08:44:29.628Z,17.79
2018-11-27T08:50:24.646Z,10.87
2018-11-27T08:56:19.610Z,15.91
2018-11-27T09:02:14.598Z,13.7
2018-11-27T09:08:09.611Z,8.93
2018-11-27T09:14:04.616Z,7.08
2018-11-27T09:19:59.663Z,7.14
2018-11-27T09:25:54.633Z,8.94
2018-11-27T09:31:49.640Z,10.28
2018-11-27T09:37:44.633Z,12.9
2018-11-27T09:43:39.640Z,7.2
2018-11-27T09:49:34.682Z,8.85
2018-11-27T09:55:29.703Z,8.08
2018-11-27T10:01:24.644Z,9.27
2018-11-27T10:07:19.689Z,15.71
2018-11-27T10:13:14.669Z,15.98
2018-11-27T10:19:09.681Z,22.97
2018-11-27T10:25:04.719Z,30.56
2018-11-27T10:30:59.653Z,26.73
2018-11-27T10:36:54.683Z,23.19
2018-11-27T10:42:49.797Z,22.96
2018-11-27T10:48:44.712Z,21.78
2018-11-27T10:54:39.693Z,18.39
2018-11-27T11:00:34.702Z,15.98
2018-11-27T11:06:29.702Z,21.2
2018-11-27T11:12:24.723Z,11.62
2018-11-27T11:18:19.733Z,17.1
2018-11-27T11:24:14.698Z,13.42
2018-11-27T11:30:09.730Z,7.99
2018-11-27T11:36:04.712Z,8.77
2018-11-27T11:41:59.701Z,9.17
2018-11-27T11:47:54.727Z,6.09
2018-11-27T11:53:49.721Z,8.55
2018-11-27T11:59:44.710Z,3.86
2018-11-27T12:05:39.735Z,3.67
2018-11-27T12:11:34.708Z,1.71
2018-11-27T12:17:29.752Z,6.27
2018-11-27T12:23:24.721Z,1.37
2018-11-27T12:29:19.783Z,2.04
2018-11-27T12:35:14.770Z,2.18
2018-11-27T12:41:10.259Z,2.25
2018-11-27T12:47:04.754Z,1.57
2018-11-27T12:53:00.783Z,2.59
2018-11-27T12:58:54.755Z,2.3
2018-11-27T13:04:49.759Z,2.8
2018-11-27T13:10:44.802Z,3.15
2018-11-27T13:16:39.788Z,3.37
2018-11-27T13:22:34.771Z,4.41
2018-11-27T13:28:29.771Z,2.2
2018-11-27T13:34:24.774Z,2.24
2018-11-27T13:40:19.771Z,6.73
2018-11-27T13:46:14.786Z,4.87
2018-11-27T13:52:09.805Z,4.79
2018-11-27T13:58:04.786Z,5.07
2018-11-27T14:03:59.784Z,3.87
2018-11-27T14:09:54.898Z,3.03
2018-11-27T14:15:49.802Z,3.34
2018-11-27T14:21:44.837Z,3.07
2018-11-27T14:27:39.799Z,3.1
2018-11-27T14:33:34.836Z,5.29
2018-11-27T14:39:29.829Z,5.59
2018-11-27T14:45:24.835Z,5.35
2018-11-27T14:51:19.849Z,2.73
2018-11-27T14:57:14.825Z,3.48
2018-11-27T15:03:09.831Z,5.56
2018-11-27T15:09:04.817Z,2.26
2018-11-27T15:14:59.825Z,5.91
2018-11-27T15:20:54.881Z,4.85
2018-11-27T15:26:49.852Z,5.02
2018-11-27T15:32:44.849Z,3.3
2018-11-27T15:38:39.853Z,3.05
2018-11-27T15:44:34.838Z,3.24
2018-11-27T15:50:29.859Z,6.95
2018-11-27T15:56:24.898Z,4.76
2018-11-27T16:02:19.876Z,13.01
2018-11-27T16:08:14.843Z,9.03
2018-11-27T16:14:09.875Z,3.85
2018-11-27T16:20:04.923Z,13.39
2018-11-27T16:25:59.920Z,8.05
2018-11-27T16:31:54.887Z,7.56
2018-11-27T16:37:49.901Z,11.57
2018-11-27T16:43:44.909Z,9.69
2018-11-27T16:49:39.895Z,6.33
2018-11-27T16:55:34.914Z,10.63
2018-11-27T17:01:29.898Z,10.7
2018-11-27T17:07:24.924Z,13.5
2018-11-27T17:13:19.912Z,13.76
2018-11-27T17:19:14.909Z,15.36
2018-11-27T17:25:09.938Z,21.33
2018-11-27T17:31:04.942Z,10.1
2018-11-27T17:36:59.933Z,13.77
2018-11-27T17:42:54.913Z,11.53
2018-11-27T17:48:49.960Z,11.27
2018-11-27T17:54:44.957Z,16.42
2018-11-27T18:00:39.938Z,15.56
2018-11-27T18:06:34.935Z,29.38
2018-11-27T18:12:33.574Z,16.07
2018-11-27T18:18:24.943Z,17.44
2018-11-27T18:24:19.955Z,24.46
2018-11-27T18:30:14.940Z,13.77
2018-11-27T18:36:09.950Z,19.91
2018-11-27T18:42:04.956Z,20.86
2018-11-27T18:47:59.960Z,14.97
2018-11-27T18:53:55.179Z,16.17
2018-11-27T19:00:25.481Z,18.58
2018-11-27T19:05:44.988Z,17.05
2018-11-27T19:11:40.010Z,16.84
2018-11-27T19:17:35.067Z,13.15
2018-11-27T19:23:30.009Z,17.33
2018-11-27T19:29:24.984Z,17.03
2018-11-27T19:35:24.955Z,18.76
2018-11-27T19:41:15.041Z,25.48
2018-11-27T19:47:10.006Z,17.05
2018-11-27T19:53:05.003Z,19.07
2018-11-27T19:58:59.993Z,16.59
2018-11-27T20:04:55.044Z,14.4
2018-11-27T20:10:50.022Z,19.35
2018-11-27T20:16:45.030Z,18.48
2018-11-27T20:22:40.025Z,16.33
2018-11-27T20:28:35.079Z,14.19
2018-11-27T20:34:30.045Z,12.04
2018-11-27T20:40:25.040Z,14.44
2018-11-27T20:46:20.120Z,11.45
2018-11-27T20:52:15.032Z,9.62
2018-11-27T20:58:10.099Z,12.7
2018-11-27T21:04:05.062Z,15.63
2018-11-27T21:10:00.033Z,10.07
2018-11-27T21:15:55.047Z,8.79
2018-11-27T21:21:50.030Z,8.29
2018-11-27T21:27:45.067Z,7.37
2018-11-27T21:33:40.051Z,10.42
2018-11-27T21:39:35.048Z,10.37
2018-11-27T21:45:30.106Z,6.6
2018-11-27T21:51:25.083Z,6.89
2018-11-27T21:57:20.075Z,6.84
2018-11-27T22:03:15.080Z,6.83
2018-11-27T22:09:10.071Z,5.9
2018-11-27T22:15:05.106Z,6.66
2018-11-27T22:21:00.091Z,7.24
2018-11-27T22:26:55.134Z,5.54
2018-11-27T22:32:50.101Z,7.23
2018-11-27T22:38:45.087Z,6.77
2018-11-27T22:44:40.087Z,5.76
2018-11-27T22:50:35.098Z,4.14
2018-11-27T22:56:30.115Z,9.23
2018-11-27T23:02:25.099Z,16.92
2018-11-27T23:08:20.117Z,5.94
2018-11-27T23:14:15.112Z,7.61
2018-11-27T23:20:10.119Z,8.31
2018-11-27T23:26:05.167Z,7.92
2018-11-27T23:32:00.118Z,10.21
2018-11-27T23:37:55.170Z,6.73
2018-11-27T23:43:50.122Z,6.69
2018-11-27T23:49:45.153Z,7.83
2018-11-27T23:55:40.146Z,6.76
